sensor_id;sensor_type;location;lat;lon;timestamp;temperature;humidity
2889;DHT22;1453;42.708;23.282;2023-02-17T00:01:00;3.50;99.90
2889;DHT22;1453;42.708;23.282;2023-02-17T00:03:33;3.30;99.90
2889;DHT22;1453;42.708;23.282;2023-02-17T00:05:59;3.40;99.90
2889;DHT22;1453;42.708;23.282;2023-02-17T00:08:30;3.50;99.90
2889;DHT22;1453;42.708;23.282;2023-02-17T00:10:57;3.70;99.90
2889;DHT22;1453;42.708;23.282;2023-02-17T00:13:23;3.70;99.90
2889;DHT22;1453;42.708;23.282;2023-02-17T00:15:49;3.80;99.90
2889;DHT22;1453;42.708;23.282;2023-02-17T00:18:14;3.70;99.90
2889;DHT22;1453;42.708;23.282;2023-02-17T00:20:40;3.20;99.90
2889;DHT22;1453;42.708;23.282;2023-02-17T00:23:06;3.30;99.90
2889;DHT22;1453;42.708;23.282;2023-02-17T00:25:32;3.00;99.90
2889;DHT22;1453;42.708;23.282;2023-02-17T00:27:57;2.90;99.90
2889;DHT22;1453;42.708;23.282;2023-02-17T00:30:23;2.70;99.90
2889;DHT22;1453;42.708;23.282;2023-02-17T00:32:49;2.80;99.90
2889;DHT22;1453;42.708;23.282;2023-02-17T00:35:15;2.90;99.90
2889;DHT22;1453;42.708;23.282;2023-02-17T00:37:41;2.90;99.90
2889;DHT22;1453;42.708;23.282;2023-02-17T00:40:13;2.60;99.90
2889;DHT22;1453;42.708;23.282;2023-02-17T00:42:39;2.90;99.90
2889;DHT22;1453;42.708;23.282;2023-02-17T00:45:05;2.80;99.90
2889;DHT22;1453;42.708;23.282;2023-02-17T00:47:32;3.00;99.90
2889;DHT22;1453;42.708;23.282;2023-02-17T00:49:58;3.20;99.90
2889;DHT22;1453;42.708;23.282;2023-02-17T00:52:23;3.40;99.90
2889;DHT22;1453;42.708;23.282;2023-02-17T00:54:49;3.40;99.90
2889;DHT22;1453;42.708;23.282;2023-02-17T00:57:15;3.60;99.90
2889;DHT22;1453;42.708;23.282;2023-02-17T00:59:41;3.40;99.90
2889;DHT22;1453;42.708;23.282;2023-02-17T01:02:07;3.40;99.90
2889;DHT22;1453;42.708;23.282;2023-02-17T01:04:32;3.30;99.90
2889;DHT22;1453;42.708;23.282;2023-02-17T01:06:58;3.30;99.90
2889;DHT22;1453;42.708;23.282;2023-02-17T01:09:24;3.20;99.90
2889;DHT22;1453;42.708;23.282;2023-02-17T01:11:50;3.20;99.90
2889;DHT22;1453;42.708;23.282;2023-02-17T01:14:16;2.90;99.90
2889;DHT22;1453;42.708;23.282;2023-02-17T01:16:47;2.50;99.90
2889;DHT22;1453;42.708;23.282;2023-02-17T01:19:16;2.20;99.90
2889;DHT22;1453;42.708;23.282;2023-02-17T01:21:43;1.80;99.90
2889;DHT22;1453;42.708;23.282;2023-02-17T01:24:10;1.60;99.90
2889;DHT22;1453;42.708;23.282;2023-02-17T01:26:37;1.60;99.90
2889;DHT22;1453;42.708;23.282;2023-02-17T01:29:05;1.70;99.90
2889;DHT22;1453;42.708;23.282;2023-02-17T01:31:32;1.40;99.90
2889;DHT22;1453;42.708;23.282;2023-02-17T01:34:01;1.40;99.90
2889;DHT22;1453;42.708;23.282;2023-02-17T01:36:28;1.30;99.90
2889;DHT22;1453;42.708;23.282;2023-02-17T01:38:54;1.50;99.90
2889;DHT22;1453;42.708;23.282;2023-02-17T01:41:24;1.40;99.90
2889;DHT22;1453;42.708;23.282;2023-02-17T01:44:23;1.60;99.90
2889;DHT22;1453;42.708;23.282;2023-02-17T01:46:52;1.50;99.90
2889;DHT22;1453;42.708;23.282;2023-02-17T01:49:29;1.70;99.90
2889;DHT22;1453;42.708;23.282;2023-02-17T01:52:14;1.80;99.90
2889;DHT22;1453;42.708;23.282;2023-02-17T01:54:47;1.90;99.90
2889;DHT22;1453;42.708;23.282;2023-02-17T01:57:20;2.10;99.90
2889;DHT22;1453;42.708;23.282;2023-02-17T01:59:47;2.10;99.90
2889;DHT22;1453;42.708;23.282;2023-02-17T02:02:13;2.10;99.90
2889;DHT22;1453;42.708;23.282;2023-02-17T02:04:42;2.30;99.90
2889;DHT22;1453;42.708;23.282;2023-02-17T02:07:15;2.40;99.90
2889;DHT22;1453;42.708;23.282;2023-02-17T02:09:49;2.40;99.90
2889;DHT22;1453;42.708;23.282;2023-02-17T02:12:26;2.50;99.90
2889;DHT22;1453;42.708;23.282;2023-02-17T02:14:57;2.40;99.90
2889;DHT22;1453;42.708;23.282;2023-02-17T02:32:47;2.30;99.90
2889;DHT22;1453;42.708;23.282;2023-02-17T02:35:29;2.20;99.90
2889;DHT22;1453;42.708;23.282;2023-02-17T02:38:17;2.20;99.90
2889;DHT22;1453;42.708;23.282;2023-02-17T02:40:53;2.30;99.90
2889;DHT22;1453;42.708;23.282;2023-02-17T02:43:23;2.20;99.90
2889;DHT22;1453;42.708;23.282;2023-02-17T02:45:49;2.10;99.90
2889;DHT22;1453;42.708;23.282;2023-02-17T02:48:15;2.00;99.90
2889;DHT22;1453;42.708;23.282;2023-02-17T02:59:17;1.80;99.90
2889;DHT22;1453;42.708;23.282;2023-02-17T03:02:03;1.60;99.90
2889;DHT22;1453;42.708;23.282;2023-02-17T03:04:35;1.70;99.90
2889;DHT22;1453;42.708;23.282;2023-02-17T03:07:26;1.90;99.90
2889;DHT22;1453;42.708;23.282;2023-02-17T03:09:59;1.80;99.90
2889;DHT22;1453;42.708;23.282;2023-02-17T03:12:26;1.80;99.90
2889;DHT22;1453;42.708;23.282;2023-02-17T03:14:55;1.50;99.90
2889;DHT22;1453;42.708;23.282;2023-02-17T03:17:24;1.40;99.90
2889;DHT22;1453;42.708;23.282;2023-02-17T03:19:50;1.50;99.90
2889;DHT22;1453;42.708;23.282;2023-02-17T03:22:20;1.70;99.90
2889;DHT22;1453;42.708;23.282;2023-02-17T03:25:05;1.70;99.90
2889;DHT22;1453;42.708;23.282;2023-02-17T03:27:31;1.80;99.90
2889;DHT22;1453;42.708;23.282;2023-02-17T03:29:57;1.80;99.90
2889;DHT22;1453;42.708;23.282;2023-02-17T03:32:23;1.90;99.90
2889;DHT22;1453;42.708;23.282;2023-02-17T03:34:49;1.80;99.90
2889;DHT22;1453;42.708;23.282;2023-02-17T03:37:15;1.90;99.90
2889;DHT22;1453;42.708;23.282;2023-02-17T03:39:41;1.90;99.90
2889;DHT22;1453;42.708;23.282;2023-02-17T03:42:07;1.90;99.90
2889;DHT22;1453;42.708;23.282;2023-02-17T03:44:33;1.90;99.90
2889;DHT22;1453;42.708;23.282;2023-02-17T03:46:58;1.90;99.90
2889;DHT22;1453;42.708;23.282;2023-02-17T03:49:24;2.00;99.90
2889;DHT22;1453;42.708;23.282;2023-02-17T03:51:50;1.90;99.90
2889;DHT22;1453;42.708;23.282;2023-02-17T03:54:16;1.80;99.90
2889;DHT22;1453;42.708;23.282;2023-02-17T03:56:42;1.90;99.90
2889;DHT22;1453;42.708;23.282;2023-02-17T03:59:08;2.00;99.90
2889;DHT22;1453;42.708;23.282;2023-02-17T04:01:33;2.10;99.90
2889;DHT22;1453;42.708;23.282;2023-02-17T04:03:59;2.30;99.90
2889;DHT22;1453;42.708;23.282;2023-02-17T04:06:25;2.30;99.90
2889;DHT22;1453;42.708;23.282;2023-02-17T04:08:51;2.30;99.90
2889;DHT22;1453;42.708;23.282;2023-02-17T04:11:17;2.00;99.90
2889;DHT22;1453;42.708;23.282;2023-02-17T04:13:43;1.70;99.90
2889;DHT22;1453;42.708;23.282;2023-02-17T04:16:09;1.70;99.90
2889;DHT22;1453;42.708;23.282;2023-02-17T04:18:36;1.90;99.90
2889;DHT22;1453;42.708;23.282;2023-02-17T04:21:03;1.60;99.90
2889;DHT22;1453;42.708;23.282;2023-02-17T04:23:29;1.40;99.90
2889;DHT22;1453;42.708;23.282;2023-02-17T04:25:55;1.60;99.90
2889;DHT22;1453;42.708;23.282;2023-02-17T04:28:21;1.40;99.90
2889;DHT22;1453;42.708;23.282;2023-02-17T04:30:51;1.60;99.90
2889;DHT22;1453;42.708;23.282;2023-02-17T04:33:20;1.60;99.90
2889;DHT22;1453;42.708;23.282;2023-02-17T04:35:46;1.70;99.90
2889;DHT22;1453;42.708;23.282;2023-02-17T04:38:12;1.90;99.90
2889;DHT22;1453;42.708;23.282;2023-02-17T04:40:38;2.00;99.90
2889;DHT22;1453;42.708;23.282;2023-02-17T04:43:04;2.00;99.90
2889;DHT22;1453;42.708;23.282;2023-02-17T04:45:29;1.80;99.90
2889;DHT22;1453;42.708;23.282;2023-02-17T04:47:55;1.70;99.90
2889;DHT22;1453;42.708;23.282;2023-02-17T04:50:21;1.80;99.90
2889;DHT22;1453;42.708;23.282;2023-02-17T04:52:48;1.70;99.90
2889;DHT22;1453;42.708;23.282;2023-02-17T04:55:13;1.30;99.90
2889;DHT22;1453;42.708;23.282;2023-02-17T04:57:39;1.00;99.90
2889;DHT22;1453;42.708;23.282;2023-02-17T05:00:05;1.00;99.90
2889;DHT22;1453;42.708;23.282;2023-02-17T05:02:32;1.20;99.90
2889;DHT22;1453;42.708;23.282;2023-02-17T05:04:58;1.30;99.90
2889;DHT22;1453;42.708;23.282;2023-02-17T05:07:23;1.40;99.90
2889;DHT22;1453;42.708;23.282;2023-02-17T05:09:49;1.40;99.90
2889;DHT22;1453;42.708;23.282;2023-02-17T05:12:15;1.50;99.90
2889;DHT22;1453;42.708;23.282;2023-02-17T05:14:41;1.30;99.90
2889;DHT22;1453;42.708;23.282;2023-02-17T05:17:06;1.30;99.90
2889;DHT22;1453;42.708;23.282;2023-02-17T05:19:32;1.50;99.90
2889;DHT22;1453;42.708;23.282;2023-02-17T05:21:58;1.40;99.90
2889;DHT22;1453;42.708;23.282;2023-02-17T05:24:24;1.30;99.90
2889;DHT22;1453;42.708;23.282;2023-02-17T05:26:50;1.20;99.90
2889;DHT22;1453;42.708;23.282;2023-02-17T05:29:15;1.10;99.90
2889;DHT22;1453;42.708;23.282;2023-02-17T05:31:41;1.30;99.90
2889;DHT22;1453;42.708;23.282;2023-02-17T05:34:07;1.30;99.90
2889;DHT22;1453;42.708;23.282;2023-02-17T05:36:33;1.20;99.90
2889;DHT22;1453;42.708;23.282;2023-02-17T05:38:59;1.30;99.90
2889;DHT22;1453;42.708;23.282;2023-02-17T05:41:25;1.40;99.90
2889;DHT22;1453;42.708;23.282;2023-02-17T05:43:50;1.40;99.90
2889;DHT22;1453;42.708;23.282;2023-02-17T05:46:16;1.40;99.90
2889;DHT22;1453;42.708;23.282;2023-02-17T05:48:42;1.60;99.90
2889;DHT22;1453;42.708;23.282;2023-02-17T05:51:08;1.40;99.90
2889;DHT22;1453;42.708;23.282;2023-02-17T05:53:34;1.20;99.90
2889;DHT22;1453;42.708;23.282;2023-02-17T05:56:00;1.10;99.90
2889;DHT22;1453;42.708;23.282;2023-02-17T05:58:26;1.20;99.90
2889;DHT22;1453;42.708;23.282;2023-02-17T06:00:52;1.50;99.90
2889;DHT22;1453;42.708;23.282;2023-02-17T06:03:18;1.70;99.90
2889;DHT22;1453;42.708;23.282;2023-02-17T06:05:44;1.50;99.90
2889;DHT22;1453;42.708;23.282;2023-02-17T06:08:10;1.60;99.90
2889;DHT22;1453;42.708;23.282;2023-02-17T06:10:36;1.70;99.90
2889;DHT22;1453;42.708;23.282;2023-02-17T06:13:02;1.70;99.90
2889;DHT22;1453;42.708;23.282;2023-02-17T06:15:27;2.10;99.90
2889;DHT22;1453;42.708;23.282;2023-02-17T06:17:54;1.90;99.90
2889;DHT22;1453;42.708;23.282;2023-02-17T06:20:20;1.90;99.90
2889;DHT22;1453;42.708;23.282;2023-02-17T06:22:46;2.00;99.90
2889;DHT22;1453;42.708;23.282;2023-02-17T06:25:12;2.20;99.90
2889;DHT22;1453;42.708;23.282;2023-02-17T06:27:38;2.40;99.90
2889;DHT22;1453;42.708;23.282;2023-02-17T06:30:04;2.80;99.90
2889;DHT22;1453;42.708;23.282;2023-02-17T06:32:31;3.00;99.90
2889;DHT22;1453;42.708;23.282;2023-02-17T06:34:56;3.50;99.90
2889;DHT22;1453;42.708;23.282;2023-02-17T06:37:22;4.30;99.90
2889;DHT22;1453;42.708;23.282;2023-02-17T06:39:48;4.90;99.90
2889;DHT22;1453;42.708;23.282;2023-02-17T06:42:14;5.80;99.90
2889;DHT22;1453;42.708;23.282;2023-02-17T06:44:40;6.70;99.90
2889;DHT22;1453;42.708;23.282;2023-02-17T06:47:05;7.10;97.20
2889;DHT22;1453;42.708;23.282;2023-02-17T06:49:31;7.30;93.20
2889;DHT22;1453;42.708;23.282;2023-02-17T06:51:57;6.90;93.40
2889;DHT22;1453;42.708;23.282;2023-02-17T06:54:23;7.30;93.90
2889;DHT22;1453;42.708;23.282;2023-02-17T06:56:48;7.50;94.10
2889;DHT22;1453;42.708;23.282;2023-02-17T06:59:14;8.20;91.50
2889;DHT22;1453;42.708;23.282;2023-02-17T07:01:40;8.70;90.40
2889;DHT22;1453;42.708;23.282;2023-02-17T07:04:06;9.20;85.70
2889;DHT22;1453;42.708;23.282;2023-02-17T07:06:32;9.70;82.30
2889;DHT22;1453;42.708;23.282;2023-02-17T07:08:57;10.20;79.80
2889;DHT22;1453;42.708;23.282;2023-02-17T07:11:23;10.30;76.60
2889;DHT22;1453;42.708;23.282;2023-02-17T07:13:50;10.90;74.60
2889;DHT22;1453;42.708;23.282;2023-02-17T07:16:17;10.90;70.50
2889;DHT22;1453;42.708;23.282;2023-02-17T07:18:43;11.60;70.50
2889;DHT22;1453;42.708;23.282;2023-02-17T07:21:10;12.00;67.00
2889;DHT22;1453;42.708;23.282;2023-02-17T07:23:36;12.40;67.00
2889;DHT22;1453;42.708;23.282;2023-02-17T07:26:05;12.00;63.70
2889;DHT22;1453;42.708;23.282;2023-02-17T07:28:34;10.90;65.60
2889;DHT22;1453;42.708;23.282;2023-02-17T07:31:10;12.20;66.60
2889;DHT22;1453;42.708;23.282;2023-02-17T07:33:38;12.70;64.10
2889;DHT22;1453;42.708;23.282;2023-02-17T07:36:12;13.10;63.10
2889;DHT22;1453;42.708;23.282;2023-02-17T07:38:39;12.60;60.50
2889;DHT22;1453;42.708;23.282;2023-02-17T07:41:08;12.40;63.80
2889;DHT22;1453;42.708;23.282;2023-02-17T07:43:35;13.40;61.60
2889;DHT22;1453;42.708;23.282;2023-02-17T07:46:01;13.90;59.70
2889;DHT22;1453;42.708;23.282;2023-02-17T07:48:27;14.10;59.10
2889;DHT22;1453;42.708;23.282;2023-02-17T07:50:53;14.60;58.40
2889;DHT22;1453;42.708;23.282;2023-02-17T07:53:19;15.10;57.40
2889;DHT22;1453;42.708;23.282;2023-02-17T07:55:45;15.30;56.70
2889;DHT22;1453;42.708;23.282;2023-02-17T07:58:11;15.40;56.50
2889;DHT22;1453;42.708;23.282;2023-02-17T08:00:36;15.70;56.20
2889;DHT22;1453;42.708;23.282;2023-02-17T08:03:02;15.60;55.70
2889;DHT22;1453;42.708;23.282;2023-02-17T08:05:28;15.60;55.30
2889;DHT22;1453;42.708;23.282;2023-02-17T08:07:54;15.90;56.50
2889;DHT22;1453;42.708;23.282;2023-02-17T08:10:38;16.90;55.10
2889;DHT22;1453;42.708;23.282;2023-02-17T08:13:25;17.10;53.40
2889;DHT22;1453;42.708;23.282;2023-02-17T08:15:51;17.40;53.10
2889;DHT22;1453;42.708;23.282;2023-02-17T08:18:17;18.30;52.60
2889;DHT22;1453;42.708;23.282;2023-02-17T08:20:43;18.20;51.40
2889;DHT22;1453;42.708;23.282;2023-02-17T08:23:09;17.90;51.10
2889;DHT22;1453;42.708;23.282;2023-02-17T08:25:37;18.40;50.80
2889;DHT22;1453;42.708;23.282;2023-02-17T08:28:04;18.50;50.70
2889;DHT22;1453;42.708;23.282;2023-02-17T08:30:33;18.20;49.50
2889;DHT22;1453;42.708;23.282;2023-02-17T08:32:59;17.90;49.90
2889;DHT22;1453;42.708;23.282;2023-02-17T08:35:27;17.00;49.90
2889;DHT22;1453;42.708;23.282;2023-02-17T08:37:52;17.50;49.10
2889;DHT22;1453;42.708;23.282;2023-02-17T08:40:18;17.50;47.60
2889;DHT22;1453;42.708;23.282;2023-02-17T08:42:44;17.50;46.90
2889;DHT22;1453;42.708;23.282;2023-02-17T08:45:12;17.60;45.40
2889;DHT22;1453;42.708;23.282;2023-02-17T08:47:39;17.30;45.60
2889;DHT22;1453;42.708;23.282;2023-02-17T08:50:06;16.90;45.70
2889;DHT22;1453;42.708;23.282;2023-02-17T08:52:34;16.00;45.40
2889;DHT22;1453;42.708;23.282;2023-02-17T08:55:00;16.60;45.80
2889;DHT22;1453;42.708;23.282;2023-02-17T08:57:27;17.00;44.80
2889;DHT22;1453;42.708;23.282;2023-02-17T08:59:53;17.10;44.90
2889;DHT22;1453;42.708;23.282;2023-02-17T09:02:19;17.00;44.10
2889;DHT22;1453;42.708;23.282;2023-02-17T09:04:45;17.10;44.00
2889;DHT22;1453;42.708;23.282;2023-02-17T09:07:13;17.20;43.40
2889;DHT22;1453;42.708;23.282;2023-02-17T09:09:39;17.40;43.30
2889;DHT22;1453;42.708;23.282;2023-02-17T09:12:05;17.10;42.50
2889;DHT22;1453;42.708;23.282;2023-02-17T09:14:32;16.40;42.10
2889;DHT22;1453;42.708;23.282;2023-02-17T09:16:59;17.10;43.10
2889;DHT22;1453;42.708;23.282;2023-02-17T09:19:25;18.00;43.20
2889;DHT22;1453;42.708;23.282;2023-02-17T09:21:51;18.10;42.40
2889;DHT22;1453;42.708;23.282;2023-02-17T09:24:17;18.10;42.10
2889;DHT22;1453;42.708;23.282;2023-02-17T09:26:43;17.80;41.30
2889;DHT22;1453;42.708;23.282;2023-02-17T09:29:09;17.10;42.30
2889;DHT22;1453;42.708;23.282;2023-02-17T09:31:35;17.00;42.40
2889;DHT22;1453;42.708;23.282;2023-02-17T09:34:02;16.80;41.50
2889;DHT22;1453;42.708;23.282;2023-02-17T09:36:36;16.90;42.30
2889;DHT22;1453;42.708;23.282;2023-02-17T09:39:04;17.80;42.40
2889;DHT22;1453;42.708;23.282;2023-02-17T09:41:41;18.00;42.00
2889;DHT22;1453;42.708;23.282;2023-02-17T09:44:26;18.00;42.30
2889;DHT22;1453;42.708;23.282;2023-02-17T09:47:24;18.50;41.30
2889;DHT22;1453;42.708;23.282;2023-02-17T09:49:55;18.50;40.80
2889;DHT22;1453;42.708;23.282;2023-02-17T09:55:49;16.80;42.40
2889;DHT22;1453;42.708;23.282;2023-02-17T09:58:22;18.80;42.30
2889;DHT22;1453;42.708;23.282;2023-02-17T10:00:53;19.20;41.80
2889;DHT22;1453;42.708;23.282;2023-02-17T10:03:33;19.30;41.70
2889;DHT22;1453;42.708;23.282;2023-02-17T10:06:12;19.60;41.80
2889;DHT22;1453;42.708;23.282;2023-02-17T10:17:12;19.30;40.40
2889;DHT22;1453;42.708;23.282;2023-02-17T10:22:21;19.00;40.00
2889;DHT22;1453;42.708;23.282;2023-02-17T10:24:50;19.50;40.00
2889;DHT22;1453;42.708;23.282;2023-02-17T10:27:45;19.80;40.10
2889;DHT22;1453;42.708;23.282;2023-02-17T10:30:37;19.10;40.00
2889;DHT22;1453;42.708;23.282;2023-02-17T10:36:28;18.50;39.50
2889;DHT22;1453;42.708;23.282;2023-02-17T10:39:07;18.70;40.10
2889;DHT22;1453;42.708;23.282;2023-02-17T10:41:40;19.50;39.40
2889;DHT22;1453;42.708;23.282;2023-02-17T10:44:13;19.70;39.20
2889;DHT22;1453;42.708;23.282;2023-02-17T10:46:42;18.90;38.70
2889;DHT22;1453;42.708;23.282;2023-02-17T10:49:35;19.50;39.00
2889;DHT22;1453;42.708;23.282;2023-02-17T10:52:21;20.30;39.40
2889;DHT22;1453;42.708;23.282;2023-02-17T10:55:10;20.50;39.20
2889;DHT22;1453;42.708;23.282;2023-02-17T10:57:43;21.00;38.40
2889;DHT22;1453;42.708;23.282;2023-02-17T11:00:15;20.40;38.30
2889;DHT22;1453;42.708;23.282;2023-02-17T11:02:46;18.00;38.70
2889;DHT22;1453;42.708;23.282;2023-02-17T11:08:07;17.70;40.30
2889;DHT22;1453;42.708;23.282;2023-02-17T11:11:15;18.90;40.10
2889;DHT22;1453;42.708;23.282;2023-02-17T11:13:55;18.90;39.50
2889;DHT22;1453;42.708;23.282;2023-02-17T11:19:38;19.40;37.30
2889;DHT22;1453;42.708;23.282;2023-02-17T11:22:17;19.40;37.40
2889;DHT22;1453;42.708;23.282;2023-02-17T11:25:30;19.00;37.70
2889;DHT22;1453;42.708;23.282;2023-02-17T11:28:00;18.90;37.20
2889;DHT22;1453;42.708;23.282;2023-02-17T11:30:29;18.50;37.80
2889;DHT22;1453;42.708;23.282;2023-02-17T11:32:56;18.80;38.20
2889;DHT22;1453;42.708;23.282;2023-02-17T11:38:10;19.10;38.30
2889;DHT22;1453;42.708;23.282;2023-02-17T11:40:38;19.40;38.60
2889;DHT22;1453;42.708;23.282;2023-02-17T11:43:04;19.20;38.70
2889;DHT22;1453;42.708;23.282;2023-02-17T11:51:17;19.30;38.70
2889;DHT22;1453;42.708;23.282;2023-02-17T12:16:56;19.70;38.00
2889;DHT22;1453;42.708;23.282;2023-02-17T12:32:22;19.60;37.40
2889;DHT22;1453;42.708;23.282;2023-02-17T12:35:00;19.90;38.20
2889;DHT22;1453;42.708;23.282;2023-02-17T12:37:57;20.40;37.50
2889;DHT22;1453;42.708;23.282;2023-02-17T12:40:45;21.10;37.60
2889;DHT22;1453;42.708;23.282;2023-02-17T12:46:09;20.50;37.40
2889;DHT22;1453;42.708;23.282;2023-02-17T12:48:38;20.30;37.50
2889;DHT22;1453;42.708;23.282;2023-02-17T12:51:11;20.00;37.70
2889;DHT22;1453;42.708;23.282;2023-02-17T12:53:55;19.80;37.40
2889;DHT22;1453;42.708;23.282;2023-02-17T12:59:00;21.70;37.80
2889;DHT22;1453;42.708;23.282;2023-02-17T13:01:37;21.80;36.90
2889;DHT22;1453;42.708;23.282;2023-02-17T13:04:05;21.40;37.00
2889;DHT22;1453;42.708;23.282;2023-02-17T13:06:41;20.20;36.40
2889;DHT22;1453;42.708;23.282;2023-02-17T13:09:30;20.20;37.80
2889;DHT22;1453;42.708;23.282;2023-02-17T13:17:32;21.10;36.50
2889;DHT22;1453;42.708;23.282;2023-02-17T13:22:32;20.10;37.40
2889;DHT22;1453;42.708;23.282;2023-02-17T13:24:58;20.40;37.70
2889;DHT22;1453;42.708;23.282;2023-02-17T13:32:37;20.60;36.90
2889;DHT22;1453;42.708;23.282;2023-02-17T13:37:49;21.10;37.30
2889;DHT22;1453;42.708;23.282;2023-02-17T13:42:45;21.00;35.90
2889;DHT22;1453;42.708;23.282;2023-02-17T13:47:57;21.60;35.30
2889;DHT22;1453;42.708;23.282;2023-02-17T13:50:32;21.80;34.40
2889;DHT22;1453;42.708;23.282;2023-02-17T13:53:02;20.40;34.50
2889;DHT22;1453;42.708;23.282;2023-02-17T13:55:44;20.70;35.10
2889;DHT22;1453;42.708;23.282;2023-02-17T13:58:10;20.00;35.50
2889;DHT22;1453;42.708;23.282;2023-02-17T14:00:35;19.50;36.80
2889;DHT22;1453;42.708;23.282;2023-02-17T14:03:23;19.70;36.60
2889;DHT22;1453;42.708;23.282;2023-02-17T14:05:57;20.50;36.40
2889;DHT22;1453;42.708;23.282;2023-02-17T14:11:08;19.40;35.80
2889;DHT22;1453;42.708;23.282;2023-02-17T14:13:45;19.20;36.70
2889;DHT22;1453;42.708;23.282;2023-02-17T14:19:24;18.20;37.40
2889;DHT22;1453;42.708;23.282;2023-02-17T14:22:03;18.30;38.00
2889;DHT22;1453;42.708;23.282;2023-02-17T14:24:35;17.60;37.90
2889;DHT22;1453;42.708;23.282;2023-02-17T14:27:07;17.40;38.90
2889;DHT22;1453;42.708;23.282;2023-02-17T14:35:22;17.80;40.00
2889;DHT22;1453;42.708;23.282;2023-02-17T14:37:48;18.10;39.90
2889;DHT22;1453;42.708;23.282;2023-02-17T14:40:23;18.40;40.20
2889;DHT22;1453;42.708;23.282;2023-02-17T14:42:49;18.40;39.60
2889;DHT22;1453;42.708;23.282;2023-02-17T14:45:17;18.10;39.70
2889;DHT22;1453;42.708;23.282;2023-02-17T14:47:44;17.70;39.90
2889;DHT22;1453;42.708;23.282;2023-02-17T14:50:11;17.70;40.20
2889;DHT22;1453;42.708;23.282;2023-02-17T14:52:43;17.80;40.50
2889;DHT22;1453;42.708;23.282;2023-02-17T14:55:15;17.30;40.40
2889;DHT22;1453;42.708;23.282;2023-02-17T14:57:49;16.80;40.80
2889;DHT22;1453;42.708;23.282;2023-02-17T15:00:15;17.00;41.40
2889;DHT22;1453;42.708;23.282;2023-02-17T15:02:41;17.40;41.00
2889;DHT22;1453;42.708;23.282;2023-02-17T15:05:07;17.20;40.60
2889;DHT22;1453;42.708;23.282;2023-02-17T15:07:33;16.80;41.00
2889;DHT22;1453;42.708;23.282;2023-02-17T15:09:59;17.00;41.10
2889;DHT22;1453;42.708;23.282;2023-02-17T15:12:25;16.80;41.00
2889;DHT22;1453;42.708;23.282;2023-02-17T15:14:51;16.90;41.10
2889;DHT22;1453;42.708;23.282;2023-02-17T15:17:16;16.70;41.40
2889;DHT22;1453;42.708;23.282;2023-02-17T15:19:42;16.40;40.90
2889;DHT22;1453;42.708;23.282;2023-02-17T15:22:11;16.50;41.10
2889;DHT22;1453;42.708;23.282;2023-02-17T15:24:38;16.40;40.90
2889;DHT22;1453;42.708;23.282;2023-02-17T15:27:04;15.80;41.20
2889;DHT22;1453;42.708;23.282;2023-02-17T15:29:31;15.80;41.60
2889;DHT22;1453;42.708;23.282;2023-02-17T15:31:59;15.70;41.80
2889;DHT22;1453;42.708;23.282;2023-02-17T15:34:30;15.70;41.70
2889;DHT22;1453;42.708;23.282;2023-02-17T15:37:01;15.40;41.90
2889;DHT22;1453;42.708;23.282;2023-02-17T15:39:27;15.30;42.00
2889;DHT22;1453;42.708;23.282;2023-02-17T15:42:04;15.10;42.60
2889;DHT22;1453;42.708;23.282;2023-02-17T15:44:39;15.10;42.00
2889;DHT22;1453;42.708;23.282;2023-02-17T15:47:12;14.90;42.00
2889;DHT22;1453;42.708;23.282;2023-02-17T15:49:40;14.40;42.00
2889;DHT22;1453;42.708;23.282;2023-02-17T15:52:09;14.20;42.40
2889;DHT22;1453;42.708;23.282;2023-02-17T15:54:39;13.80;42.60
2889;DHT22;1453;42.708;23.282;2023-02-17T15:57:18;13.60;43.10
2889;DHT22;1453;42.708;23.282;2023-02-17T15:59:45;13.30;42.60
2889;DHT22;1453;42.708;23.282;2023-02-17T16:02:20;13.00;42.50
2889;DHT22;1453;42.708;23.282;2023-02-17T16:04:47;12.90;42.50
2889;DHT22;1453;42.708;23.282;2023-02-17T16:07:14;13.00;42.10
2889;DHT22;1453;42.708;23.282;2023-02-17T16:09:40;12.80;42.20
2889;DHT22;1453;42.708;23.282;2023-02-17T16:12:14;12.60;41.80
2889;DHT22;1453;42.708;23.282;2023-02-17T16:14:43;12.70;41.90
2889;DHT22;1453;42.708;23.282;2023-02-17T16:17:14;12.60;41.70
2889;DHT22;1453;42.708;23.282;2023-02-17T16:19:40;12.40;41.80
2889;DHT22;1453;42.708;23.282;2023-02-17T16:22:06;12.50;41.90
2889;DHT22;1453;42.708;23.282;2023-02-17T16:24:32;12.50;41.80
2889;DHT22;1453;42.708;23.282;2023-02-17T16:26:58;12.40;42.00
2889;DHT22;1453;42.708;23.282;2023-02-17T16:29:24;12.20;42.30
2889;DHT22;1453;42.708;23.282;2023-02-17T16:31:50;12.10;42.70
2889;DHT22;1453;42.708;23.282;2023-02-17T16:34:19;11.90;43.00
2889;DHT22;1453;42.708;23.282;2023-02-17T16:36:52;11.70;43.30
2889;DHT22;1453;42.708;23.282;2023-02-17T16:39:21;11.60;43.50
2889;DHT22;1453;42.708;23.282;2023-02-17T16:41:47;11.40;43.70
2889;DHT22;1453;42.708;23.282;2023-02-17T16:44:15;11.40;43.90
2889;DHT22;1453;42.708;23.282;2023-02-17T16:46:52;11.30;43.90
2889;DHT22;1453;42.708;23.282;2023-02-17T16:49:45;11.30;44.20
2889;DHT22;1453;42.708;23.282;2023-02-17T16:52:23;11.20;44.40
2889;DHT22;1453;42.708;23.282;2023-02-17T16:54:50;11.10;44.50
2889;DHT22;1453;42.708;23.282;2023-02-17T16:57:17;11.10;44.60
2889;DHT22;1453;42.708;23.282;2023-02-17T16:59:45;11.00;44.70
2889;DHT22;1453;42.708;23.282;2023-02-17T17:02:11;11.00;44.90
2889;DHT22;1453;42.708;23.282;2023-02-17T17:04:37;11.00;45.00
2889;DHT22;1453;42.708;23.282;2023-02-17T17:07:04;11.10;45.10
2889;DHT22;1453;42.708;23.282;2023-02-17T17:09:29;11.20;45.10
2889;DHT22;1453;42.708;23.282;2023-02-17T17:11:55;11.10;45.20
2889;DHT22;1453;42.708;23.282;2023-02-17T17:14:22;11.00;45.50
2889;DHT22;1453;42.708;23.282;2023-02-17T17:16:54;10.90;45.60
2889;DHT22;1453;42.708;23.282;2023-02-17T17:19:22;10.80;45.90
2889;DHT22;1453;42.708;23.282;2023-02-17T17:21:48;10.60;46.30
2889;DHT22;1453;42.708;23.282;2023-02-17T17:24:14;10.50;46.30
2889;DHT22;1453;42.708;23.282;2023-02-17T17:26:45;10.50;46.40
2889;DHT22;1453;42.708;23.282;2023-02-17T17:29:14;10.50;46.40
2889;DHT22;1453;42.708;23.282;2023-02-17T17:31:40;10.50;46.50
2889;DHT22;1453;42.708;23.282;2023-02-17T17:34:07;10.50;46.40
2889;DHT22;1453;42.708;23.282;2023-02-17T17:36:36;10.50;46.40
2889;DHT22;1453;42.708;23.282;2023-02-17T17:39:05;10.40;46.40
2889;DHT22;1453;42.708;23.282;2023-02-17T17:41:33;10.40;46.60
2889;DHT22;1453;42.708;23.282;2023-02-17T17:43:59;10.20;46.60
2889;DHT22;1453;42.708;23.282;2023-02-17T17:46:27;10.10;46.90
2889;DHT22;1453;42.708;23.282;2023-02-17T17:48:56;10.20;47.30
2889;DHT22;1453;42.708;23.282;2023-02-17T17:51:29;10.10;47.20
2889;DHT22;1453;42.708;23.282;2023-02-17T17:53:56;9.90;48.30
2889;DHT22;1453;42.708;23.282;2023-02-17T17:56:27;10.10;47.70
2889;DHT22;1453;42.708;23.282;2023-02-17T17:58:55;9.90;48.50
2889;DHT22;1453;42.708;23.282;2023-02-17T18:01:22;9.70;48.50
2889;DHT22;1453;42.708;23.282;2023-02-17T18:03:48;9.80;48.60
2889;DHT22;1453;42.708;23.282;2023-02-17T18:06:21;9.70;48.70
2889;DHT22;1453;42.708;23.282;2023-02-17T18:09:04;9.70;48.90
2889;DHT22;1453;42.708;23.282;2023-02-17T18:11:32;9.70;48.90
2889;DHT22;1453;42.708;23.282;2023-02-17T18:14:01;9.70;48.90
2889;DHT22;1453;42.708;23.282;2023-02-17T18:16:30;9.70;48.90